Time;durP1;ratioP1;P1;durP2;ratioP2;P2;SDS_P1;SDS_P2;PMS_P1;PMS_P2;Temp;Humidity;BMP_temperature;BMP_pressure;BME280_temperature;BME280_humidity;BME280_pressure;Samples;Min_cycle;Max_cycle;Signal;HPM_P1;HPM_P2
2021/11/27 00:01:34;;;;;;;2.63;1.53;;;5.80;99.90;;;;;;5018654;28;20063;-90
2021/11/27 00:04:00;;;;;;;2.57;1.40;;;5.80;99.90;;;;;;5018625;28;20466;-89
2021/11/27 00:06:26;;;;;;;2.17;1.37;;;5.70;99.90;;;;;;5018598;28;20028;-89
2021/11/27 00:08:52;;;;;;;4.93;1.60;;;5.70;99.90;;;;;;5018187;28;20025;-90
2021/11/27 00:11:18;;;;;;;2.40;1.30;;;5.60;99.90;;;;;;5018269;28;20029;-89
2021/11/27 00:13:44;;;;;;;3.97;1.60;;;5.60;99.90;;;;;;5018452;28;20543;-90
2021/11/27 00:16:10;;;;;;;3.83;1.30;;;5.60;99.90;;;;;;5018645;28;20029;-89
2021/11/27 00:18:36;;;;;;;2.67;1.20;;;5.60;99.90;;;;;;5017889;28;20039;-89
2021/11/27 00:21:08;;;;;;;2.80;1.43;;;5.60;99.90;;;;;;5018504;28;20029;-89
2021/11/27 00:23:35;;;;;;;2.23;1.30;;;5.60;99.90;;;;;;5018586;28;20497;-89
2021/11/27 00:26:01;;;;;;;3.03;1.27;;;5.50;99.90;;;;;;5018229;28;20035;-89
2021/11/27 00:28:28;;;;;;;3.17;1.20;;;5.50;99.90;;;;;;5034151;28;20029;-90
2021/11/27 00:30:58;;;;;;;1.93;1.10;;;5.60;99.90;;;;;;5017267;28;20470;-89
2021/11/27 00:33:23;;;;;;;;;;;5.50;99.90;;;;;;5018721;28;20370;-89
2021/11/27 00:35:50;;;;;;;2.57;1.30;;;5.60;99.90;;;;;;5034600;28;19916;-89
2021/11/27 00:38:17;;;;;;;2.70;1.20;;;5.50;99.90;;;;;;5017430;28;20443;-88
2021/11/27 00:40:44;;;;;;;2.47;1.30;;;5.50;99.90;;;;;;5034271;28;20060;-90
2021/11/27 00:43:14;;;;;;;3.77;1.27;;;5.50;99.90;;;;;;5018087;28;20437;-89
2021/11/27 00:45:41;;;;;;;2.47;1.48;;;5.60;99.90;;;;;;5034461;28;20029;-89
2021/11/27 00:48:09;;;;;;;3.80;1.40;;;5.50;99.90;;;;;;5033933;28;20093;-89
2021/11/27 00:50:39;;;;;;;3.07;1.60;;;5.50;99.90;;;;;;5034456;28;20056;-89
2021/11/27 00:53:06;;;;;;;3.23;1.60;;;5.60;99.90;;;;;;5034399;28;20041;-89
2021/11/27 00:55:35;;;;;;;3.20;1.47;;;5.60;99.90;;;;;;5032920;28;20033;-90
2021/11/27 01:01:35;;;;;;;2.77;1.40;;;5.60;99.90;;;;;;5051915;28;20040;-89
2021/11/27 01:04:02;;;;;;;3.80;1.50;;;5.60;99.90;;;;;;5017984;28;20025;-90
2021/11/27 01:06:28;;;;;;;2.43;1.20;;;5.60;99.90;;;;;;5034383;28;20107;-89
2021/11/27 01:08:57;;;;;;;3.60;1.60;;;5.60;99.90;;;;;;5017214;28;20025;-90
2021/11/27 01:11:53;;;;;;;2.45;1.40;;;5.60;99.90;;;;;;5034037;28;20025;-89
2021/11/27 01:14:23;;;;;;;2.93;1.20;;;5.60;99.90;;;;;;5034117;28;20033;-89
2021/11/27 01:16:55;;;;;;;4.90;1.40;;;5.60;99.90;;;;;;5017875;28;20060;-89
2021/11/27 01:19:23;;;;;;;2.77;1.33;;;5.70;99.90;;;;;;5017029;28;20033;-89
2021/11/27 01:21:56;;;;;;;3.10;1.40;;;5.60;99.90;;;;;;5034057;28;20025;-89
2021/11/27 01:24:25;;;;;;;3.87;1.40;;;5.70;99.90;;;;;;5034019;28;20046;-89
2021/11/27 01:26:54;;;;;;;;;;;5.70;99.90;;;;;;5018062;28;20124;-89
2021/11/27 01:29:20;;;;;;;2.13;1.27;;;5.70;99.90;;;;;;5033431;28;19909;-89
2021/11/27 01:31:47;;;;;;;3.10;1.60;;;5.70;99.90;;;;;;5017330;28;20040;-89
2021/11/27 01:34:12;;;;;;;2.07;1.20;;;5.60;99.90;;;;;;5033952;28;20486;-89
2021/11/27 01:36:39;;;;;;;3.10;1.40;;;5.70;99.90;;;;;;5017338;28;20036;-90
2021/11/27 01:39:05;;;;;;;2.03;1.10;;;5.60;99.90;;;;;;5016779;28;20036;-89
2021/11/27 01:41:32;;;;;;;2.13;1.20;;;5.60;99.90;;;;;;5051538;28;20371;-89
2021/11/27 01:43:58;;;;;;;3.30;1.43;;;5.70;99.90;;;;;;5037451;28;20485;-90
2021/11/27 01:46:24;;;;;;;3.00;1.03;;;5.60;99.90;;;;;;5021343;28;20548;-90
2021/11/27 01:48:52;;;;;;;1.53;0.90;;;5.60;99.90;;;;;;5020794;28;20474;-89
2021/11/27 01:51:20;;;;;;;1.90;1.20;;;5.60;99.90;;;;;;5037366;28;20043;-90
2021/11/27 01:53:51;;;;;;;3.03;1.13;;;5.50;99.90;;;;;;5021300;28;20033;-89
2021/11/27 01:56:23;;;;;;;4.40;1.30;;;5.60;99.90;;;;;;5021267;28;20082;-90
2021/11/27 01:58:49;;;;;;;3.80;1.37;;;5.60;99.90;;;;;;5036929;28;20037;-89
2021/11/27 02:01:23;;;;;;;2.27;1.20;;;5.60;99.90;;;;;;5037229;28;20063;-89
2021/11/27 02:03:49;;;;;;;2.50;1.40;;;5.60;99.90;;;;;;5021243;28;20112;-90
2021/11/27 02:06:22;;;;;;;3.07;1.17;;;5.60;99.90;;;;;;5021742;28;20488;-90
2021/11/27 02:08:49;;;;;;;3.33;1.20;;;5.60;99.90;;;;;;5020558;28;20033;-90
2021/11/27 02:11:21;;;;;;;3.30;1.30;;;5.60;99.90;;;;;;5020874;28;20044;-90
2021/11/27 02:13:47;;;;;;;2.77;1.27;;;5.60;99.90;;;;;;5037354;28;20065;-90
2021/11/27 02:16:14;;;;;;;2.23;1.20;;;5.70;99.90;;;;;;5020968;28;20398;-90
2021/11/27 02:18:41;;;;;;;3.73;1.50;;;5.70;99.90;;;;;;5020189;28;20494;-90
2021/11/27 02:21:10;;;;;;;2.53;1.00;;;5.60;99.90;;;;;;5020227;28;20037;-90
2021/11/27 02:23:37;;;;;;;2.33;1.30;;;5.60;99.90;;;;;;5020547;28;20051;-90
2021/11/27 02:26:06;;;;;;;4.27;1.40;;;5.70;99.90;;;;;;5020622;28;20028;-90
2021/11/27 02:28:42;;;;;;;2.50;1.00;;;5.60;99.90;;;;;;5020519;28;20021;-89
2021/11/27 02:31:08;;;;;;;1.93;1.20;;;5.70;99.90;;;;;;5020339;28;20124;-90
2021/11/27 02:33:34;;;;;;;3.87;1.30;;;5.70;99.90;;;;;;5036999;28;20029;-90
2021/11/27 02:36:00;;;;;;;2.67;1.60;;;5.70;99.90;;;;;;5037232;28;20477;-90
2021/11/27 02:38:26;;;;;;;3.13;1.20;;;5.70;99.90;;;;;;5054045;28;20036;-90
2021/11/27 02:40:52;;;;;;;2.90;1.30;;;5.70;99.90;;;;;;5020023;28;20075;-90
2021/11/27 02:43:18;;;;;;;2.13;1.13;;;5.70;99.90;;;;;;5036790;28;20028;-90
2021/11/27 02:45:44;;;;;;;1.87;1.00;;;5.70;99.90;;;;;;5037073;28;20021;-90
2021/11/27 02:48:10;;;;;;;2.70;1.30;;;5.80;99.90;;;;;;5037754;28;20028;-90
2021/11/27 02:50:37;;;;;;;3.50;1.20;;;5.70;99.90;;;;;;5022763;28;20033;-90
2021/11/27 02:53:03;;;;;;;5.30;1.53;;;5.70;99.90;;;;;;5040369;28;20071;-89
2021/11/27 02:55:29;;;;;;;3.10;1.57;;;5.70;99.90;;;;;;5037611;28;20029;-89
2021/11/27 02:57:54;;;;;;;2.93;1.60;;;5.80;99.90;;;;;;5036710;28;20029;-89
2021/11/27 03:00:22;;;;;;;3.53;1.73;;;5.80;99.90;;;;;;5036215;28;20032;-89
2021/11/27 03:02:50;;;;;;;3.73;2.20;;;5.70;99.90;;;;;;5036435;28;20051;-89
2021/11/27 03:05:17;;;;;;;3.53;2.30;;;5.70;99.90;;;;;;5036250;28;20036;-89
2021/11/27 03:07:43;;;;;;;6.00;2.40;;;5.70;99.90;;;;;;5035790;28;20033;-89
2021/11/27 03:10:11;;;;;;;3.97;2.30;;;5.80;99.90;;;;;;5019799;28;20032;-88
2021/11/27 03:12:38;;;;;;;4.10;2.67;;;5.80;99.90;;;;;;5036248;28;20409;-90
2021/11/27 03:15:08;;;;;;;8.27;5.23;;;5.80;99.90;;;;;;5036095;28;20033;-90
2021/11/27 03:17:34;;;;;;;10.57;7.87;;;5.80;99.90;;;;;;5019021;28;20549;-90
2021/11/27 03:20:00;;;;;;;10.87;7.80;;;5.70;99.90;;;;;;5019475;28;20140;-89
2021/11/27 03:22:26;;;;;;;10.70;7.10;;;5.60;99.90;;;;;;5019379;28;20386;-90
2021/11/27 03:24:52;;;;;;;10.50;7.33;;;5.60;99.90;;;;;;5035920;28;20032;-89
2021/11/27 03:27:18;;;;;;;7.47;5.70;;;5.50;99.90;;;;;;5019367;28;20021;-89
2021/11/27 03:29:44;;;;;;;9.93;6.43;;;5.40;99.90;;;;;;5018626;28;20031;-89
2021/11/27 03:32:15;;;;;;;7.73;5.30;;;5.30;99.90;;;;;;5019161;28;20389;-90
2021/11/27 03:34:53;;;;;;;8.17;5.50;;;5.20;99.90;;;;;;5020925;28;20033;-90
2021/11/27 03:37:20;;;;;;;8.70;5.27;;;5.30;99.90;;;;;;5035544;28;20490;-89
2021/11/27 03:39:47;;;;;;;7.30;4.70;;;5.20;99.90;;;;;;5018584;28;20025;-90
2021/11/27 03:42:17;;;;;;;5.27;3.90;;;5.20;99.90;;;;;;5019254;28;20139;-89
2021/11/27 03:44:46;;;;;;;7.17;4.10;;;5.10;99.90;;;;;;5019625;28;20029;-90
2021/11/27 03:47:12;;;;;;;6.87;4.23;;;5.10;99.90;;;;;;5018994;28;20029;-90
2021/11/27 03:49:38;;;;;;;5.10;3.40;;;5.10;99.90;;;;;;5018270;28;20116;-88
2021/11/27 03:52:04;;;;;;;5.43;3.50;;;5.00;99.90;;;;;;5018805;28;20489;-89
2021/11/27 03:54:36;;;;;;;5.63;3.30;;;4.90;99.90;;;;;;5019602;28;20033;-88
2021/11/27 03:57:03;;;;;;;7.00;3.57;;;4.90;99.90;;;;;;5018874;28;20038;-89
2021/11/27 03:59:28;;;;;;;4.43;3.03;;;4.80;99.90;;;;;;5018264;28;20056;-89
2021/11/27 04:01:55;;;;;;;5.27;3.27;;;4.80;99.90;;;;;;5034932;28;20073;-90
2021/11/27 04:04:21;;;;;;;5.70;2.70;;;4.80;99.90;;;;;;5035097;28;20029;-90
2021/11/27 04:06:47;;;;;;;3.57;2.33;;;4.70;99.90;;;;;;5018502;28;20056;-89
2021/11/27 04:09:14;;;;;;;3.97;2.47;;;4.60;99.90;;;;;;5018151;28;20116;-90
2021/11/27 04:11:41;;;;;;;3.70;2.30;;;4.70;99.90;;;;;;5034907;28;20029;-90
2021/11/27 04:14:16;;;;;;;4.10;2.40;;;4.70;99.90;;;;;;5019853;28;20040;-89
2021/11/27 04:16:49;;;;;;;3.70;2.23;;;4.70;99.90;;;;;;5019591;28;20477;-90
2021/11/27 04:19:15;;;;;;;4.27;2.27;;;4.60;99.90;;;;;;5017653;28;20036;-88
2021/11/27 04:21:41;;;;;;;4.00;2.30;;;4.60;99.90;;;;;;5018209;28;20029;-89
2021/11/27 04:24:07;;;;;;;3.73;2.37;;;4.70;99.90;;;;;;5034896;28;20378;-90
2021/11/27 04:26:33;;;;;;;7.27;2.73;;;4.70;99.90;;;;;;5034715;28;20025;-89
2021/11/27 04:28:59;;;;;;;4.60;2.43;;;4.70;99.90;;;;;;5017830;28;20033;-89
2021/11/27 04:31:26;;;;;;;3.97;2.50;;;4.70;99.90;;;;;;5018324;28;20119;-89
2021/11/27 04:33:53;;;;;;;4.33;2.53;;;4.60;99.90;;;;;;5018401;28;20645;-90
2021/11/27 04:36:21;;;;;;;4.40;2.40;;;4.60;99.90;;;;;;5018303;28;20036;-89
2021/11/27 04:38:48;;;;;;;3.33;2.17;;;4.60;99.90;;;;;;5017702;28;20036;-90
2021/11/27 04:41:14;;;;;;;4.77;2.33;;;4.50;99.90;;;;;;5018015;28;20494;-89
2021/11/27 04:43:40;;;;;;;3.70;2.40;;;4.50;99.90;;;;;;5018135;28;20035;-90
2021/11/27 04:46:06;;;;;;;4.40;3.07;;;4.50;99.90;;;;;;5017974;28;20115;-89
2021/11/27 04:48:32;;;;;;;4.50;2.97;;;4.50;99.90;;;;;;5017493;28;20128;-90
2021/11/27 04:50:59;;;;;;;5.03;2.77;;;4.40;99.90;;;;;;5017981;28;20057;-89
2021/11/27 04:53:26;;;;;;;3.57;2.47;;;4.40;99.90;;;;;;5034281;28;20025;-89
2021/11/27 04:55:53;;;;;;;3.80;2.63;;;4.40;99.90;;;;;;5018241;28;20056;-89
2021/11/27 04:58:19;;;;;;;4.27;2.40;;;4.40;99.90;;;;;;5033745;28;20032;-90
2021/11/27 05:00:49;;;;;;;3.37;2.50;;;4.40;99.90;;;;;;5033832;28;20048;-90
2021/11/27 05:03:20;;;;;;;3.80;2.30;;;4.40;99.90;;;;;;5018813;28;20028;-90
2021/11/27 05:05:46;;;;;;;3.47;2.40;;;4.40;99.90;;;;;;5017750;28;20112;-89
2021/11/27 05:08:12;;;;;;;3.50;2.33;;;4.40;99.90;;;;;;5033640;28;20032;-89
2021/11/27 05:10:39;;;;;;;3.60;2.50;;;4.40;99.90;;;;;;5034107;28;20035;-88
2021/11/27 05:13:05;;;;;;;3.90;2.63;;;4.50;99.90;;;;;;5017754;28;20029;-88
2021/11/27 05:15:34;;;;;;;5.07;3.50;;;4.40;99.90;;;;;;5018056;28;20124;-88
2021/11/27 05:18:02;;;;;;;4.65;3.20;;;4.50;99.90;;;;;;5019612;28;20437;-88
2021/11/27 05:20:57;;;;;;;5.20;3.30;;;4.50;99.90;;;;;;4984311;28;20030;-88
2021/11/27 05:23:23;;;;;;;5.70;4.20;;;4.50;99.90;;;;;;5038205;28;20393;-88
2021/11/27 05:25:51;;;;;;;6.07;3.80;;;4.50;99.90;;;;;;5038121;28;20112;-88
2021/11/27 05:28:43;;;;;;;7.07;4.10;;;4.50;99.90;;;;;;5018455;28;20025;-88
2021/11/27 05:31:27;;;;;;;7.30;4.33;;;4.60;99.90;;;;;;5040718;28;20496;-89
2021/11/27 05:36:28;;;;;;;7.83;4.60;;;4.60;99.90;;;;;;5037843;28;20051;-89
2021/11/27 05:38:53;;;;;;;6.63;4.50;;;4.60;99.90;;;;;;5037287;28;20060;-88
2021/11/27 05:41:22;;;;;;;7.38;5.13;;;4.60;99.90;;;;;;5021705;28;20025;-88
2021/11/27 05:43:51;;;;;;;7.23;5.03;;;4.70;99.90;;;;;;5037725;28;20512;-88
2021/11/27 05:46:17;;;;;;;8.20;5.40;;;4.70;99.90;;;;;;5021202;28;20271;-88
2021/11/27 05:48:43;;;;;;;9.50;5.97;;;4.70;99.90;;;;;;5037027;28;20451;-88
2021/11/27 05:51:15;;;;;;;10.03;6.37;;;4.70;99.90;;;;;;5038739;28;20119;-88
2021/11/27 05:53:41;;;;;;;10.80;6.93;;;4.70;99.90;;;;;;5037542;28;20143;-89
2021/11/27 05:56:07;;;;;;;12.20;8.07;;;4.80;99.90;;;;;;5021063;28;20039;-88
2021/11/27 05:58:32;;;;;;;13.60;7.77;;;4.80;99.90;;;;;;5020244;28;20123;-88
2021/11/27 06:01:05;;;;;;;15.57;8.37;;;4.80;99.90;;;;;;5030261;23;20053;-86
2021/11/27 06:03:32;;;;;;;14.47;8.03;;;4.80;99.90;;;;;;5018720;28;20037;-87
2021/11/27 06:05:58;;;;;;;15.30;8.60;;;4.80;99.90;;;;;;5018666;28;20026;-86
2021/11/27 06:08:24;;;;;;;14.87;8.70;;;4.90;99.90;;;;;;5018485;28;20041;-87
2021/11/27 06:10:50;;;;;;;15.23;9.10;;;4.90;99.90;;;;;;5018255;28;20018;-87
2021/11/27 06:13:16;;;;;;;14.97;8.60;;;4.90;99.90;;;;;;5002647;28;20029;-87
2021/11/27 06:15:42;;;;;;;16.40;8.87;;;4.90;99.90;;;;;;5001975;28;20037;-87
2021/11/27 06:18:08;;;;;;;14.20;8.93;;;4.90;99.90;;;;;;5001837;28;20102;-86
2021/11/27 06:20:34;;;;;;;14.37;8.37;;;4.90;99.90;;;;;;5001982;28;20030;-86
2021/11/27 06:22:59;;;;;;;13.20;8.13;;;4.90;99.90;;;;;;5019416;28;20032;-86
2021/11/27 06:25:27;;;;;;;13.40;8.77;;;4.90;99.90;;;;;;5003593;28;20028;-86
2021/11/27 06:27:54;;;;;;;12.87;7.70;;;4.90;99.90;;;;;;5019160;28;20025;-87
2021/11/27 06:30:19;;;;;;;12.10;7.97;;;4.90;99.90;;;;;;5002465;28;20037;-86
2021/11/27 06:32:47;;;;;;;13.73;8.03;;;4.90;99.90;;;;;;5018742;28;20056;-86
2021/11/27 06:35:13;;;;;;;15.00;8.13;;;4.80;99.90;;;;;;5018371;28;20030;-86
2021/11/27 06:37:40;;;;;;;13.93;8.40;;;4.90;99.90;;;;;;5018450;28;20375;-86
2021/11/27 06:40:07;;;;;;;12.57;7.97;;;4.90;99.90;;;;;;5002647;28;20044;-86
2021/11/27 06:42:39;;;;;;;13.07;7.90;;;4.90;99.90;;;;;;5004037;28;20101;-86
2021/11/27 06:45:15;;;;;;;11.67;7.60;;;4.90;99.90;;;;;;5004702;28;20071;-86
2021/11/27 06:47:59;;;;;;;12.07;7.83;;;4.90;99.90;;;;;;5005065;28;20033;-86
2021/11/27 06:50:25;;;;;;;12.57;7.23;;;4.90;99.90;;;;;;5001743;28;20072;-87
2021/11/27 06:52:52;;;;;;;10.87;7.50;;;5.00;99.90;;;;;;5001851;28;20053;-86
2021/11/27 06:55:18;;;;;;;10.83;6.63;;;4.90;99.90;;;;;;5001926;28;20061;-86
2021/11/27 06:57:46;;;;;;;11.77;7.00;;;4.90;99.90;;;;;;5017643;28;20040;-86
2021/11/27 07:00:12;;;;;;;12.13;7.30;;;4.90;99.90;;;;;;5001197;28;20116;-87
2021/11/27 07:02:57;;;;;;;11.37;6.93;;;4.90;99.90;;;;;;5020973;28;20371;-87
2021/11/27 07:05:41;;;;;;;12.90;7.03;;;5.00;99.90;;;;;;5020684;28;20041;-86
2021/11/27 07:08:12;;;;;;;13.33;7.03;;;5.00;99.90;;;;;;5001910;28;20029;-86
2021/11/27 07:10:46;;;;;;;14.40;7.83;;;5.00;99.90;;;;;;5001658;28;20075;-86
2021/11/27 07:13:18;;;;;;;13.47;7.87;;;5.00;99.90;;;;;;5001979;28;20034;-87
2021/11/27 07:15:47;;;;;;;15.00;7.85;;;5.00;99.90;;;;;;5001365;28;20444;-87
2021/11/27 07:18:13;;;;;;;14.97;8.53;;;5.00;99.90;;;;;;5000769;28;20094;-86
2021/11/27 07:20:39;;;;;;;12.13;8.00;;;4.90;99.90;;;;;;5000887;28;20120;-86
2021/11/27 07:23:05;;;;;;;12.33;8.07;;;5.00;99.90;;;;;;5001362;28;20474;-87
2021/11/27 07:25:32;;;;;;;14.40;9.30;;;5.00;99.90;;;;;;5001121;28;20091;-86
2021/11/27 07:28:13;;;;;;;15.23;8.93;;;5.00;99.90;;;;;;5020020;28;20105;-86
2021/11/27 07:30:39;;;;;;;13.47;8.60;;;5.00;99.90;;;;;;5001360;28;20044;-86
2021/11/27 07:33:05;;;;;;;14.87;9.10;;;5.10;99.90;;;;;;5018109;28;20029;-86
2021/11/27 07:35:31;;;;;;;15.67;9.23;;;5.00;99.90;;;;;;5002474;28;20034;-86
2021/11/27 07:37:57;;;;;;;15.77;8.63;;;5.10;99.90;;;;;;5001871;28;20029;-86
2021/11/27 07:40:24;;;;;;;14.13;9.13;;;5.10;99.90;;;;;;5018494;28;20074;-86
2021/11/27 07:42:52;;;;;;;21.25;11.35;;;5.00;99.90;;;;;;5003686;28;20389;-86
2021/11/27 07:45:34;;;;;;;16.13;10.07;;;5.00;99.90;;;;;;5036680;28;20124;-86
2021/11/27 07:48:19;;;;;;;15.57;9.80;;;5.10;99.90;;;;;;5021641;28;20111;-86
2021/11/27 07:51:05;;;;;;;14.00;9.00;;;5.10;99.90;;;;;;5020710;28;20120;-87
2021/11/27 07:53:53;;;;;;;13.80;9.00;;;5.00;99.90;;;;;;5004568;28;20540;-86
2021/11/27 07:56:19;;;;;;;16.20;9.63;;;5.10;99.90;;;;;;5002386;28;20030;-86
2021/11/27 07:58:45;;;;;;;17.50;9.03;;;5.00;99.90;;;;;;5002064;28;20436;-87
2021/11/27 08:01:10;;;;;;;17.67;9.47;;;5.10;99.90;;;;;;5001378;28;20038;-86
2021/11/27 08:03:37;;;;;;;16.43;9.60;;;5.10;99.90;;;;;;5018646;28;20373;-86
2021/11/27 08:06:03;;;;;;;16.83;9.37;;;5.10;99.90;;;;;;5017552;28;20025;-87
2021/11/27 08:08:29;;;;;;;21.10;9.70;;;5.10;99.90;;;;;;5017949;28;20092;-87
2021/11/27 08:10:54;;;;;;;14.87;9.60;;;5.10;99.90;;;;;;5002618;28;20540;-86
2021/11/27 08:13:20;;;;;;;21.23;11.33;;;5.10;99.90;;;;;;5002620;28;20036;-86
2021/11/27 08:15:46;;;;;;;22.53;10.40;;;5.10;99.90;;;;;;5002996;28;20041;-86
2021/11/27 08:18:12;;;;;;;22.50;11.57;;;5.10;99.90;;;;;;5003038;28;20025;-86
2021/11/27 08:20:38;;;;;;;26.87;12.53;;;5.10;99.90;;;;;;5019216;28;20124;-86
2021/11/27 08:23:05;;;;;;;22.03;11.90;;;5.10;99.90;;;;;;5002620;28;20034;-87
2021/11/27 08:25:32;;;;;;;22.50;11.43;;;5.10;99.90;;;;;;5001983;28;20025;-86
2021/11/27 08:27:59;;;;;;;23.10;11.13;;;5.10;99.90;;;;;;5002745;28;20030;-86
2021/11/27 08:30:27;;;;;;;22.10;11.63;;;5.00;99.90;;;;;;5002546;28;20060;-87
2021/11/27 08:32:53;;;;;;;24.77;11.73;;;5.10;99.90;;;;;;5019489;28;20053;-87
2021/11/27 08:35:19;;;;;;;21.17;11.03;;;5.10;99.90;;;;;;5019177;28;20087;-86
2021/11/27 08:37:45;;;;;;;23.53;11.30;;;5.10;99.90;;;;;;5006180;28;20037;-86
2021/11/27 08:40:12;;;;;;;23.60;11.90;;;5.10;99.90;;;;;;5004575;28;20036;-86
2021/11/27 08:42:39;;;;;;;22.70;11.57;;;5.10;99.90;;;;;;5004869;28;20041;-86
2021/11/27 08:45:06;;;;;;;20.97;11.70;;;5.10;99.90;;;;;;5005674;28;20033;-86
2021/11/27 08:47:32;;;;;;;23.63;11.63;;;5.10;99.90;;;;;;5020934;28;20034;-86
2021/11/27 08:50:00;;;;;;;26.83;12.03;;;5.20;99.90;;;;;;5019086;28;20132;-87
2021/11/27 08:52:26;;;;;;;22.50;11.33;;;5.10;99.90;;;;;;5001207;28;20086;-86
2021/11/27 08:54:52;;;;;;;22.50;10.90;;;5.10;99.90;;;;;;5019446;28;20061;-86
2021/11/27 08:57:19;;;;;;;25.57;12.23;;;5.20;99.90;;;;;;5003327;28;20383;-86
2021/11/27 08:59:45;;;;;;;29.23;11.77;;;5.10;99.90;;;;;;5001236;28;20030;-86
2021/11/27 09:02:12;;;;;;;23.97;11.73;;;5.10;99.90;;;;;;5018608;28;20032;-86
2021/11/27 09:04:38;;;;;;;24.57;11.37;;;5.20;99.90;;;;;;5002275;28;20084;-87
2021/11/27 09:07:05;;;;;;;27.37;11.40;;;5.20;99.90;;;;;;5002284;28;20064;-86
2021/11/27 09:09:32;;;;;;;24.33;11.57;;;5.20;99.90;;;;;;5002609;28;20034;-87
2021/11/27 09:11:58;;;;;;;23.20;11.20;;;5.20;99.90;;;;;;5020935;28;20060;-86
2021/11/27 09:14:24;;;;;;;23.03;10.30;;;5.20;99.90;;;;;;5004669;28;20087;-86
2021/11/27 09:16:52;;;;;;;21.10;11.07;;;5.20;99.90;;;;;;5022367;28;20044;-87
2021/11/27 09:19:18;;;;;;;25.93;11.03;;;5.30;99.90;;;;;;5042301;28;20033;-87
2021/11/27 09:21:44;;;;;;;22.77;10.27;;;5.30;99.90;;;;;;5006685;28;20036;-86
2021/11/27 09:24:10;;;;;;;22.63;10.37;;;5.30;99.90;;;;;;5016883;28;20393;-86
2021/11/27 09:26:37;;;;;;;22.73;11.17;;;5.30;99.90;;;;;;5000095;28;20025;-86
2021/11/27 09:29:08;;;;;;;22.97;10.67;;;5.20;99.90;;;;;;5016854;28;20252;-86
2021/11/27 09:31:41;;;;;;;24.20;10.57;;;5.20;99.90;;;;;;5000349;28;20033;-87
2021/11/27 09:34:08;;;;;;;23.40;9.67;;;5.20;99.90;;;;;;5017394;28;20402;-86
2021/11/27 09:36:35;;;;;;;23.90;10.20;;;5.20;99.90;;;;;;5017736;28;20048;-86
2021/11/27 09:39:01;;;;;;;27.57;10.27;;;5.30;99.90;;;;;;5016897;28;20034;-87
2021/11/27 09:41:30;;;;;;;18.00;9.47;;;5.30;99.90;;;;;;5000647;28;20041;-86
2021/11/27 09:43:58;;;;;;;23.45;10.45;;;5.30;99.90;;;;;;5017415;28;20029;-87
2021/11/27 09:46:28;;;;;;;20.20;9.83;;;5.30;99.90;;;;;;4999522;28;20411;-86
2021/11/27 09:48:56;;;;;;;24.63;9.90;;;5.30;99.90;;;;;;5015470;28;20103;-86
2021/11/27 09:51:26;;;;;;;22.30;9.20;;;5.30;99.90;;;;;;5018376;28;20068;-86
2021/11/27 09:53:54;;;;;;;19.77;8.87;;;5.30;99.90;;;;;;4999568;28;20038;-86
2021/11/27 09:56:22;;;;;;;22.70;9.40;;;5.30;99.90;;;;;;4998766;28;20402;-87
2021/11/27 09:58:48;;;;;;;20.27;8.87;;;5.30;99.90;;;;;;4999724;28;20099;-86
2021/11/27 10:01:15;;;;;;;25.67;9.53;;;5.30;99.90;;;;;;4998118;28;20124;-87
2021/11/27 10:03:49;;;;;;;17.80;8.43;;;5.30;99.90;;;;;;4999533;28;20088;-86
2021/11/27 10:06:17;;;;;;;20.23;7.87;;;5.30;99.90;;;;;;5001474;28;20091;-87
2021/11/27 10:08:43;;;;;;;23.23;7.57;;;5.30;99.90;;;;;;5000966;28;20040;-86
2021/11/27 10:11:08;;;;;;;35.33;9.23;;;5.30;99.90;;;;;;5001039;28;20037;-86
2021/11/27 10:13:34;;;;;;;20.67;7.93;;;5.30;99.90;;;;;;5001153;28;20033;-86
2021/11/27 10:16:00;;;;;;;15.33;7.80;;;5.30;99.90;;;;;;5001177;28;20037;-86
2021/11/27 10:18:26;;;;;;;19.67;7.83;;;5.30;99.90;;;;;;5016895;28;20025;-85
2021/11/27 10:21:18;;;;;;;19.57;7.80;;;5.30;99.90;;;;;;5017280;28;20030;-86
2021/11/27 10:23:47;;;;;;;16.27;7.07;;;5.30;99.90;;;;;;5000933;28;20022;-86
2021/11/27 10:26:32;;;;;;;22.57;8.13;;;5.30;99.90;;;;;;5000913;28;20100;-85
2021/11/27 10:29:19;;;;;;;22.63;8.20;;;5.40;99.90;;;;;;5016511;28;20033;-86
2021/11/27 10:31:48;;;;;;;22.67;8.77;;;5.40;99.90;;;;;;5000821;28;20034;-86
2021/11/27 10:34:23;;;;;;;25.02;7.93;;;5.50;99.90;;;;;;5017130;28;20104;-86
2021/11/27 10:36:50;;;;;;;20.20;7.27;;;5.50;99.90;;;;;;5017063;28;20034;-87
2021/11/27 10:39:17;;;;;;;18.03;6.93;;;5.60;99.90;;;;;;5034495;28;20040;-85
2021/11/27 10:42:05;;;;;;;20.33;7.87;;;5.60;99.90;;;;;;5017880;28;20111;-87
2021/11/27 10:44:35;;;;;;;16.50;6.80;;;5.70;99.90;;;;;;5018136;28;20032;-86
2021/11/27 10:47:23;;;;;;;17.70;6.77;;;5.70;99.90;;;;;;5001523;28;20119;-86
2021/11/27 10:49:50;;;;;;;19.87;6.87;;;5.80;99.90;;;;;;5017662;28;20030;-86
2021/11/27 10:52:21;;;;;;;18.53;6.47;;;5.80;99.90;;;;;;5002007;28;20033;-86
2021/11/27 10:54:52;;;;;;;17.23;6.83;;;5.90;99.90;;;;;;5002190;28;20033;-86
2021/11/27 10:57:38;;;;;;;20.90;5.72;;;5.90;99.90;;;;;;5001958;28;20025;-86
2021/11/27 11:00:09;;;;;;;14.90;5.87;;;5.90;99.90;;;;;;5018607;28;20037;-85
2021/11/27 11:02:38;;;;;;;17.13;5.70;;;5.90;99.90;;;;;;5002838;28;20033;-86
2021/11/27 11:05:11;;;;;;;17.33;5.35;;;5.90;99.90;;;;;;5002527;28;20029;-87
2021/11/27 11:07:38;;;;;;;18.07;6.23;;;6.00;99.90;;;;;;5018624;28;20033;-86
2021/11/27 11:10:07;;;;;;;15.03;5.63;;;6.00;99.90;;;;;;5002197;28;20470;-86
2021/11/27 11:12:40;;;;;;;20.48;6.00;;;6.00;99.90;;;;;;5002289;28;20029;-86
2021/11/27 11:15:16;;;;;;;16.67;5.50;;;6.00;99.90;;;;;;5017975;28;20371;-86
2021/11/27 11:17:45;;;;;;;13.17;5.60;;;6.00;99.90;;;;;;5002057;28;20065;-86
2021/11/27 11:20:18;;;;;;;16.30;6.07;;;6.00;99.90;;;;;;5001815;28;20036;-86
2021/11/27 11:23:06;;;;;;;16.67;5.67;;;6.00;99.90;;;;;;5010678;28;20092;-85
2021/11/27 11:25:38;;;;;;;12.50;5.47;;;6.00;99.90;;;;;;5035512;28;20034;-85
2021/11/27 11:28:15;;;;;;;17.20;5.30;;;6.00;99.90;;;;;;5018354;28;20087;-85
2021/11/27 11:30:47;;;;;;;15.30;5.30;;;5.90;99.90;;;;;;5037446;28;20056;-85
2021/11/27 11:33:16;;;;;;;17.13;5.67;;;5.90;99.90;;;;;;5022403;28;20061;-85
2021/11/27 11:35:42;;;;;;;17.30;5.40;;;5.80;99.90;;;;;;5038987;28;20033;-85
2021/11/27 11:38:11;;;;;;;14.50;5.17;;;5.90;99.90;;;;;;5036183;28;20044;-85
2021/11/27 11:40:39;;;;;;;18.40;5.97;;;5.90;99.90;;;;;;5037715;28;20045;-85
2021/11/27 11:43:05;;;;;;;14.83;5.53;;;5.80;99.90;;;;;;5021175;28;20065;-86
2021/11/27 11:45:32;;;;;;;23.47;6.67;;;5.90;99.90;;;;;;5037539;28;20048;-85
2021/11/27 11:47:58;;;;;;;16.73;4.97;;;5.90;99.90;;;;;;5003381;28;20033;-86
2021/11/27 11:50:26;;;;;;;15.63;4.30;;;5.90;99.90;;;;;;5038934;28;20029;-86
2021/11/27 11:53:21;;;;;;;14.55;4.18;;;5.90;99.90;;;;;;5023602;28;20037;-86
2021/11/27 11:55:57;;;;;;;13.70;3.90;;;5.90;99.90;;;;;;5023137;28;20128;-86
2021/11/27 11:58:30;;;;;;;13.40;3.93;;;5.90;99.90;;;;;;5005810;28;20033;-86
2021/11/27 12:01:00;;;;;;;13.33;4.13;;;6.00;99.90;;;;;;5024181;23;20052;-89
2021/11/27 12:03:32;;;;;;;13.90;3.90;;;6.00;99.90;;;;;;5015561;28;20038;-91
2021/11/27 12:06:10;;;;;;;15.80;3.73;;;6.00;99.90;;;;;;5015503;28;20448;-91
2021/11/27 12:08:48;;;;;;;17.63;3.63;;;6.00;99.90;;;;;;5015032;28;20037;-90
2021/11/27 12:11:42;;;;;;;12.27;4.10;;;6.00;99.90;;;;;;5015635;28;20033;-89
2021/11/27 12:14:26;;;;;;;10.83;3.30;;;6.10;99.90;;;;;;4999183;28;20056;-90
2021/11/27 12:17:19;;;;;;;12.40;3.37;;;6.10;99.90;;;;;;4999322;28;20037;-91
2021/11/27 12:19:50;;;;;;;14.53;3.70;;;6.10;99.90;;;;;;5014399;28;20202;-91
2021/11/27 12:22:31;;;;;;;10.97;3.50;;;6.10;99.90;;;;;;5016755;28;20414;-92
2021/11/27 12:25:12;;;;;;;14.63;3.90;;;6.20;99.90;;;;;;4999048;28;20125;-92
2021/11/27 12:27:59;;;;;;;14.13;4.10;;;6.20;99.90;;;;;;5015035;28;20033;-92
2021/11/27 12:30:29;;;;;;;17.17;4.20;;;6.20;99.90;;;;;;5016931;28;20022;-91
2021/11/27 12:32:54;;;;;;;;;;;6.20;99.90;;;;;;5002944;28;20021;-92
2021/11/27 12:35:26;;;;;;;12.20;3.30;;;6.30;99.90;;;;;;5015140;28;19963;-94
2021/11/27 12:37:54;;;;;;;10.43;2.70;;;6.20;99.90;;;;;;5014649;28;20957;-93
2021/11/27 12:40:41;;;;;;;13.97;2.70;;;6.30;99.90;;;;;;5016660;28;20037;-92
2021/11/27 12:43:16;;;;;;;12.53;3.20;;;6.30;99.90;;;;;;4999258;28;20040;-93
2021/11/27 12:45:44;;;;;;;14.53;2.77;;;6.30;99.90;;;;;;5015119;28;20083;-93
2021/11/27 12:48:28;;;;;;;7.13;2.17;;;6.30;99.50;;;;;;4998631;28;20033;-93
2021/11/27 12:51:16;;;;;;;13.63;2.47;;;6.40;98.30;;;;;;5015067;28;20033;-93
2021/11/27 12:53:58;;;;;;;10.50;2.40;;;6.40;98.30;;;;;;5015278;28;20075;-92
2021/11/27 12:56:29;;;;;;;10.23;2.00;;;6.40;97.80;;;;;;5014963;28;20033;-92
2021/11/27 12:59:45;;;;;;;;;;;;;;;;;;;;;
2021/11/27 13:02:52;;;;;;;10.30;2.17;;;6.50;97.90;;;;;;4952830;29;20538;-92
2021/11/27 13:05:19;;;;;;;8.67;2.10;;;6.40;97.30;;;;;;4952391;29;20031;-91
2021/11/27 13:07:44;;;;;;;9.83;2.30;;;6.40;97.30;;;;;;4997965;28;20041;-92
2021/11/27 13:10:10;;;;;;;18.90;2.67;;;6.40;97.60;;;;;;4998543;28;20505;-92
2021/11/27 13:12:57;;;;;;;11.83;2.50;;;6.40;98.10;;;;;;5015070;28;20029;-92